Darstellungsparameter: Aktuell verwendete Einstellungen:
Skalierung der Graphiken ... ?
xyx+y,   Skalierungsfaktor:      Skalierung: Modus: x, Faktor: 1
Darstellungszeitraum ... ?
Vom - - bis: - -   Zeitraum: 28.09.2011 - 29.09.2011
Min/Max/Avg-Anzeige ... ?
Zeige MMA aktuell
Zeige MMA Monat
Zeige MMA alles
Zeige --A aktuell
Zeige --A Monat
Zeige --A alles
Keine MMA-Anzeige
MMA:
Average (ber die Originaldaten)
MMA-Basis: 28.09.2011 - 29.09.2011
Quicknavigation für Darstellung... ?
Tage:      1T, 2T, 3T, 5T -1T -2T -3T -5T +1T +2T +3T +5T
Wochen: 1W, 2W, 3W -1W -2W -3W +1W +2W +3W
Monate: 1M, 3M, 6M -1M -3M -6M +1M +3M +6M
Jahre:    1J, 3J, 5J, 10J -1J -3J -5J -10J +1J +3J +5J +10J
Nutze für die Darstellung ... ?
Originaldaten oder Mittelwerte auf ...
Stundenbasis Tagesbasis Wochenbasis
Monatsbasis Jahresbasis      Datenbasis: Original-Daten
Darstellen als:
Statistik (Auto) Statistik J:M      Darstellung:
Zur Graphik,    zurück zur Übersicht aller Sensoren.
 
Tabellarische Datenbersicht: ?
 
Sensor: Nr:Datum:Temp:Abs-Feuchte:Windchill:Wind:
Aussen-T/F 1 28-09-2011 00:10:02 14.1 C 10.44 g/m*3 14.1 C 0 km/h
2 28-09-2011 00:22:02 14 C 10.37 g/m*3 14 C 0 km/h
3 28-09-2011 00:34:02 14.2 C 10.5 g/m*3 14.2 C 0 km/h
4 28-09-2011 00:46:02 13.8 C 10.37 g/m*3 13.8 C 0 km/h
5 28-09-2011 00:58:02 13.7 C 10.3 g/m*3 13.7 C 0 km/h
6 28-09-2011 01:10:02 13.5 C 10.18 g/m*3 13.5 C 0 km/h
7 28-09-2011 01:22:02 13.2 C 9.99 g/m*3 13.2 C 0 km/h
8 28-09-2011 01:34:02 13.4 C 10.23 g/m*3 13.4 C 0 km/h
9 28-09-2011 01:46:02 12.7 C 9.8 g/m*3 12.7 C 0 km/h
10 28-09-2011 01:58:02 12.9 C 9.92 g/m*3 12.9 C 0 km/h
11 28-09-2011 02:10:02 12.8 C 9.86 g/m*3 12.8 C 0 km/h
12 28-09-2011 02:22:02 13.1 C 9.93 g/m*3 13.1 C 0 km/h
13 28-09-2011 02:34:02 12.8 C 9.86 g/m*3 12.8 C 0 km/h
14 28-09-2011 02:46:02 12.8 C 9.97 g/m*3 12.8 C 0 km/h
15 28-09-2011 02:58:02 12.8 C 9.97 g/m*3 12.8 C 0 km/h
16 28-09-2011 03:10:02 12.4 C 9.72 g/m*3 12.4 C 0 km/h
17 28-09-2011 03:22:02 12.6 C 9.74 g/m*3 12.6 C 0 km/h
18 28-09-2011 03:34:02 12.4 C 9.62 g/m*3 12.4 C 0 km/h
19 28-09-2011 03:46:02 12.3 C 9.56 g/m*3 12.3 C 0 km/h
20 28-09-2011 03:58:03 12.4 C 9.72 g/m*3 12.4 C 0 km/h
21 28-09-2011 04:10:03 12.1 C 9.44 g/m*3 12.1 C 0 km/h
22 28-09-2011 04:22:03 11.8 C 9.37 g/m*3 11.8 C 0 km/h
23 28-09-2011 04:34:03 11.8 C 9.37 g/m*3 11.8 C 0 km/h
24 28-09-2011 04:46:03 11.9 C 9.43 g/m*3 11.9 C 0 km/h
25 28-09-2011 04:58:03 11.8 C 9.37 g/m*3 11.8 C 0 km/h
Sensor: Nr:Datum:Temp:Abs-Feuchte:Windchill:Wind:
Aussen-T/F 26 28-09-2011 05:10:03 11.5 C 9.19 g/m*3 11.5 C 0 km/h
27 28-09-2011 05:22:03 11.7 C 9.31 g/m*3 11.7 C 0 km/h
28 28-09-2011 05:34:03 11.5 C 9.19 g/m*3 11.5 C 0 km/h
29 28-09-2011 05:46:03 11.3 C 9.08 g/m*3 11.3 C 0 km/h
30 28-09-2011 05:58:03 11.2 C 9.02 g/m*3 11.2 C 0 km/h
31 28-09-2011 06:10:03 10.9 C 8.85 g/m*3 10.9 C 0 km/h
32 28-09-2011 06:22:03 11.2 C 9.02 g/m*3 11.2 C 0 km/h
33 28-09-2011 06:34:03 11.7 C 9.31 g/m*3 11.7 C 0 km/h
34 28-09-2011 06:46:03 12.2 C 9.6 g/m*3 12.2 C 0 km/h
35 28-09-2011 06:58:03 12.6 C 9.85 g/m*3 12.6 C 0 km/h
36 28-09-2011 07:10:02 12.8 C 10.08 g/m*3 12.8 C 0 km/h
37 28-09-2011 07:22:01 13 C 10.09 g/m*3 13 C 0 km/h
38 28-09-2011 07:34:02 13.1 C 10.16 g/m*3 13.1 C 0 km/h
39 28-09-2011 07:46:02 13.1 C 10.16 g/m*3 13.1 C 0 km/h
40 28-09-2011 07:58:02 13.2 C 10.22 g/m*3 13.2 C 0 km/h
41 28-09-2011 08:10:02 13.3 C 10.28 g/m*3 13.3 C 0 km/h
42 28-09-2011 08:22:01 13.3 C 10.4 g/m*3 13.3 C 0 km/h
43 28-09-2011 08:34:02 13.4 C 10.46 g/m*3 13.4 C 0 km/h
44 28-09-2011 08:46:02 13.4 C 10.46 g/m*3 13.4 C 0 km/h
45 28-09-2011 08:58:02 13.5 C 10.53 g/m*3 13.5 C 0 km/h
46 28-09-2011 09:10:02 13.5 C 10.53 g/m*3 13.5 C 0 km/h
47 28-09-2011 09:22:02 13.5 C 10.53 g/m*3 13.5 C 0 km/h
48 28-09-2011 09:34:02 14 C 10.74 g/m*3 14 C 0 km/h
49 28-09-2011 09:46:02 14.4 C 11 g/m*3 14.4 C 0 km/h
50 28-09-2011 09:58:02 14.4 C 11 g/m*3 14.4 C 0 km/h
Sensor: Nr:Datum:Temp:Abs-Feuchte:Windchill:Wind:
Aussen-T/F 51 28-09-2011 10:10:02 14.7 C 11.21 g/m*3 14.7 C 0 km/h
52 28-09-2011 10:22:02 15 C 11.28 g/m*3 15 C 0 km/h
53 28-09-2011 10:34:01 14.9 C 11.34 g/m*3 14.9 C 0 km/h
54 28-09-2011 10:46:02 15.2 C 11.29 g/m*3 15.2 C 0 km/h
55 28-09-2011 10:58:03 15.4 C 11.43 g/m*3 15.4 C 0 km/h
56 28-09-2011 11:10:01 15.2 C 11.16 g/m*3 15.2 C 0 km/h
57 28-09-2011 11:22:01 15.2 C 11.16 g/m*3 15.2 C 0 km/h
58 28-09-2011 11:34:02 15.5 C 11.37 g/m*3 15.5 C 0 km/h
59 28-09-2011 11:46:02 16 C 11.72 g/m*3 16 C 0 km/h
60 28-09-2011 11:58:02 16.4 C 12 g/m*3 16.4 C 0 km/h
61 28-09-2011 12:10:02 16.8 C 12.15 g/m*3 16.8 C 0 km/h
62 28-09-2011 12:22:02 17.6 C 12 g/m*3 17.6 C 0 km/h
63 28-09-2011 12:34:02 17.9 C 11.91 g/m*3 17.9 C 0 km/h
64 28-09-2011 12:46:02 18.2 C 11.97 g/m*3 18.2 C 0 km/h
65 28-09-2011 12:58:02 18.6 C 11.78 g/m*3 18.6 C 0 km/h
66 28-09-2011 13:10:02 19.2 C 11.54 g/m*3 19.2 C 0 km/h
67 28-09-2011 13:22:01 19.5 C 11.58 g/m*3 19.5 C 0 km/h
68 28-09-2011 13:34:02 20.3 C 11.78 g/m*3 20.3 C 0 km/h
69 28-09-2011 13:46:01 20.9 C 11.29 g/m*3 20.9 C 0 km/h
70 28-09-2011 13:58:01 21 C 11.17 g/m*3 21 C 0 km/h
71 28-09-2011 14:10:02 21.6 C 11 g/m*3 21.6 C 0 km/h
72 28-09-2011 14:22:02 21.6 C 11.19 g/m*3 21.6 C 0 km/h
73 28-09-2011 14:34:02 22 C 10.87 g/m*3 22 C 0 km/h
74 28-09-2011 14:46:02 22.5 C 10.59 g/m*3 22.5 C 0 km/h
75 28-09-2011 14:58:02 22.8 C 10.97 g/m*3 22.8 C 0 km/h
Sensor: Nr:Datum:Temp:Abs-Feuchte:Windchill:Wind:
Aussen-T/F 76 28-09-2011 15:10:01 23.2 C 10.6 g/m*3 23.2 C 0 km/h
77 28-09-2011 15:22:02 23.4 C 10.51 g/m*3 23.4 C 0 km/h
78 28-09-2011 15:34:02 23.5 C 10.57 g/m*3 23.5 C 0 km/h
79 28-09-2011 15:46:02 22.4 C 11.72 g/m*3 22.4 C 0 km/h
80 28-09-2011 15:58:02 22.1 C 11.52 g/m*3 22.1 C 0 km/h
81 28-09-2011 16:10:02 22.9 C 12.06 g/m*3 22.9 C 0 km/h
82 28-09-2011 16:22:02 25.4 C 11.06 g/m*3 25.4 C 0 km/h
83 28-09-2011 16:34:02 26.5 C 10.51 g/m*3 26.5 C 0 km/h
84 28-09-2011 16:46:01 26.1 C 11.02 g/m*3 26.1 C 0 km/h
85 28-09-2011 16:58:01 27.3 C 9.68 g/m*3 27.3 C 0 km/h
86 28-09-2011 17:10:02 28.7 C 11.3 g/m*3 28.7 C 0 km/h
87 28-09-2011 17:22:01 28.3 C 10.78 g/m*3 28.3 C 0 km/h
88 28-09-2011 17:34:02 27.7 C 10.7 g/m*3 27.7 C 0 km/h
89 28-09-2011 17:46:01 27.1 C 10.87 g/m*3 27.1 C 0 km/h
90 28-09-2011 17:58:01 26.2 C 10.34 g/m*3 26.2 C 0 km/h
91 28-09-2011 18:10:02 25.7 C 10.53 g/m*3 25.7 C 0 km/h
92 28-09-2011 18:22:02 24.6 C 10.8 g/m*3 24.6 C 0 km/h
93 28-09-2011 18:34:01 23.5 C 11 g/m*3 23.5 C 0 km/h
94 28-09-2011 18:46:02 22.6 C 11.05 g/m*3 22.6 C 0 km/h
95 28-09-2011 18:58:02 21.3 C 11 g/m*3 21.3 C 0 km/h
96 28-09-2011 19:10:01 19.3 C 11.28 g/m*3 19.3 C 0 km/h
97 28-09-2011 19:22:02 18.5 C 11.39 g/m*3 18.5 C 0 km/h
98 28-09-2011 19:34:01 18.1 C 11.43 g/m*3 18.1 C 0 km/h
99 28-09-2011 19:46:02 17.7 C 11.62 g/m*3 17.7 C 0 km/h
100 28-09-2011 19:58:02 17.6 C 11.7 g/m*3 17.6 C 0 km/h
Sensor: Nr:Datum:Temp:Abs-Feuchte:Windchill:Wind:
Aussen-T/F 101 28-09-2011 20:10:01 17.2 C 11.42 g/m*3 17.2 C 0 km/h
102 28-09-2011 20:22:01 17.1 C 11.5 g/m*3 17.1 C 0 km/h
103 28-09-2011 20:34:02 17 C 11.58 g/m*3 17 C 0 km/h
104 28-09-2011 20:46:02 16.8 C 11.58 g/m*3 16.8 C 0 km/h
105 28-09-2011 20:58:02 16.7 C 11.65 g/m*3 16.7 C 0 km/h
106 28-09-2011 21:10:02 16.5 C 11.65 g/m*3 16.5 C 0 km/h
107 28-09-2011 21:22:02 16.4 C 11.58 g/m*3 16.4 C 0 km/h
108 28-09-2011 21:34:02 16.2 C 11.45 g/m*3 16.2 C 0 km/h
109 28-09-2011 21:46:02 16.3 C 11.65 g/m*3 16.3 C 0 km/h
110 28-09-2011 21:58:02 16 C 11.44 g/m*3 16 C 0 km/h
111 28-09-2011 22:10:02 16.2 C 11.58 g/m*3 16.2 C 0 km/h
112 28-09-2011 22:22:02 16 C 11.44 g/m*3 16 C 0 km/h
113 28-09-2011 22:34:02 15.7 C 11.37 g/m*3 15.7 C 0 km/h
114 28-09-2011 22:46:02 15.7 C 11.51 g/m*3 15.7 C 0 km/h
115 28-09-2011 22:58:02 15.8 C 11.58 g/m*3 15.8 C 0 km/h
116 28-09-2011 23:10:02 15.7 C 11.51 g/m*3 15.7 C 0 km/h
117 28-09-2011 23:22:03 15.6 C 11.44 g/m*3 15.6 C 0 km/h
118 28-09-2011 23:34:02 15.6 C 11.44 g/m*3 15.6 C 0 km/h
119 28-09-2011 23:46:01 15.2 C 11.16 g/m*3 15.2 C 0 km/h
120 28-09-2011 23:58:01 14.8 C 11.02 g/m*3 14.8 C 0 km/h
121 29-09-2011 00:10:02 14.8 C 11.02 g/m*3 14.8 C 0 km/h
122 29-09-2011 00:22:01 14.3 C 10.69 g/m*3 14.3 C 0 km/h
123 29-09-2011 00:34:01 14.1 C 10.56 g/m*3 14.1 C 0 km/h
124 29-09-2011 00:46:01 13.9 C 10.55 g/m*3 13.9 C 0 km/h
125 29-09-2011 00:58:01 13.7 C 10.42 g/m*3 13.7 C 0 km/h
Sensor: Nr:Datum:Temp:Abs-Feuchte:Windchill:Wind:
Aussen-T/F 126 29-09-2011 01:10:02 13.6 C 10.24 g/m*3 13.6 C 0 km/h
127 29-09-2011 01:22:01 13.4 C 10.23 g/m*3 13.4 C 0 km/h
128 29-09-2011 01:34:01 13.5 C 10.29 g/m*3 13.5 C 0 km/h
129 29-09-2011 01:46:01 13.5 C 10.29 g/m*3 13.5 C 0 km/h
130 29-09-2011 01:58:01 13 C 9.98 g/m*3 13 C 0 km/h
131 29-09-2011 02:10:01 12.8 C 9.97 g/m*3 12.8 C 0 km/h
132 29-09-2011 02:22:02 12.7 C 9.91 g/m*3 12.7 C 0 km/h
133 29-09-2011 02:34:01 12.7 C 9.91 g/m*3 12.7 C 0 km/h
134 29-09-2011 02:46:02 12.7 C 9.91 g/m*3 12.7 C 0 km/h
135 29-09-2011 02:58:02 12.5 C 9.78 g/m*3 12.5 C 0 km/h
136 29-09-2011 03:10:01 12.2 C 9.6 g/m*3 12.2 C 0 km/h
137 29-09-2011 03:22:01 12.4 C 9.72 g/m*3 12.4 C 0 km/h
138 29-09-2011 03:34:02 12 C 9.48 g/m*3 12 C 0 km/h
139 29-09-2011 03:46:02 11.8 C 9.37 g/m*3 11.8 C 0 km/h
140 29-09-2011 03:58:02 11.6 C 9.25 g/m*3 11.6 C 0 km/h
141 29-09-2011 04:10:01 11.7 C 9.31 g/m*3 11.7 C 0 km/h
142 29-09-2011 04:22:02 11.9 C 9.53 g/m*3 11.9 C 0 km/h
143 29-09-2011 04:34:01 12.1 C 9.54 g/m*3 12.1 C 0 km/h
144 29-09-2011 04:46:02 12.2 C 9.6 g/m*3 12.2 C 0 km/h
145 29-09-2011 04:58:02 12.2 C 9.6 g/m*3 12.2 C 0 km/h
146 29-09-2011 05:10:01 12.4 C 9.72 g/m*3 12.4 C 0 km/h
147 29-09-2011 05:22:01 12.5 C 9.78 g/m*3 12.5 C 0 km/h
148 29-09-2011 05:34:02 12.4 C 9.72 g/m*3 12.4 C 0 km/h
149 29-09-2011 05:46:01 12.5 C 9.89 g/m*3 12.5 C 0 km/h
150 29-09-2011 05:58:01 12.6 C 9.96 g/m*3 12.6 C 0 km/h
Sensor: Nr:Datum:Temp:Abs-Feuchte:Windchill:Wind:
Aussen-T/F 151 29-09-2011 06:10:02 12.5 C 9.89 g/m*3 12.5 C 0 km/h
152 29-09-2011 06:22:01 12.3 C 9.77 g/m*3 12.3 C 0 km/h
153 29-09-2011 06:34:02 12.4 C 9.83 g/m*3 12.4 C 0 km/h
154 29-09-2011 06:46:01 12.3 C 9.77 g/m*3 12.3 C 0 km/h
155 29-09-2011 06:58:01 12.4 C 9.83 g/m*3 12.4 C 0 km/h
156 29-09-2011 07:10:02 12.3 C 9.77 g/m*3 12.3 C 0 km/h
157 29-09-2011 07:22:01 12.2 C 9.71 g/m*3 12.2 C 0 km/h
158 29-09-2011 07:34:01 12.2 C 9.71 g/m*3 12.2 C 0 km/h
159 29-09-2011 07:46:01 12.3 C 9.77 g/m*3 12.3 C 0 km/h
160 29-09-2011 07:58:01 12.3 C 9.77 g/m*3 12.3 C 0 km/h
161 29-09-2011 08:10:01 12.5 C 9.89 g/m*3 12.5 C 0 km/h
162 29-09-2011 08:22:02 12.5 C 9.89 g/m*3 12.5 C 0 km/h
163 29-09-2011 08:34:01 12.4 C 9.83 g/m*3 12.4 C 0 km/h
164 29-09-2011 08:46:02 12.6 C 9.96 g/m*3 12.6 C 0 km/h
165 29-09-2011 08:58:02 12.8 C 10.08 g/m*3 12.8 C 0 km/h
166 29-09-2011 09:10:01 13 C 10.21 g/m*3 13 C 0 km/h
167 29-09-2011 09:22:01 13.2 C 10.33 g/m*3 13.2 C 0 km/h
168 29-09-2011 09:34:01 13.1 C 10.27 g/m*3 13.1 C 0 km/h
169 29-09-2011 09:46:01 13.2 C 10.33 g/m*3 13.2 C 0 km/h
170 29-09-2011 09:58:02 13.7 C 10.66 g/m*3 13.7 C 0 km/h
171 29-09-2011 10:10:01 13.9 C 10.79 g/m*3 13.9 C 0 km/h
172 29-09-2011 10:22:01 14.3 C 10.93 g/m*3 14.3 C 0 km/h
173 29-09-2011 10:34:02 14 C 10.61 g/m*3 14 C 0 km/h
174 29-09-2011 10:46:01 14 C 10.49 g/m*3 14 C 0 km/h
175 29-09-2011 10:58:01 14.2 C 10.62 g/m*3 14.2 C 0 km/h
Sensor: Nr:Datum:Temp:Abs-Feuchte:Windchill:Wind:
Aussen-T/F 176 29-09-2011 11:10:02 14.1 C 10.56 g/m*3 14.1 C 0 km/h
177 29-09-2011 11:22:01 14.4 C 10.88 g/m*3 14.4 C 0 km/h
178 29-09-2011 11:34:01 15 C 11.16 g/m*3 15 C 0 km/h
179 29-09-2011 11:46:01 15.5 C 11.63 g/m*3 15.5 C 0 km/h
180 29-09-2011 11:58:01 15.6 C 11.7 g/m*3 15.6 C 0 km/h
181 29-09-2011 12:10:01 16.2 C 12 g/m*3 16.2 C 0 km/h
182 29-09-2011 12:22:02 16.9 C 12.08 g/m*3 16.9 C 0 km/h
183 29-09-2011 12:34:01 17.6 C 11.55 g/m*3 17.6 C 0 km/h
184 29-09-2011 12:46:02 18.5 C 11.08 g/m*3 18.5 C 0 km/h
185 29-09-2011 12:58:02 19.3 C 10.95 g/m*3 19.3 C 0 km/h
186 29-09-2011 13:10:01 19.6 C 10.8 g/m*3 19.6 C 0 km/h
187 29-09-2011 13:22:02 20.3 C 10.55 g/m*3 20.3 C 0 km/h
188 29-09-2011 13:34:01 21.6 C 11 g/m*3 21.6 C 0 km/h
189 29-09-2011 13:46:02 22 C 10.29 g/m*3 22 C 0 km/h
190 29-09-2011 13:58:02 22.2 C 9.82 g/m*3 22.2 C 0 km/h
191 29-09-2011 14:10:01 22.5 C 9.99 g/m*3 22.5 C 0 km/h
192 29-09-2011 14:22:01 22.5 C 9.79 g/m*3 22.5 C 0 km/h
193 29-09-2011 14:34:02 22.6 C 9.84 g/m*3 22.6 C 0 km/h
194 29-09-2011 14:46:01 23 C 10.07 g/m*3 23 C 0 km/h
195 29-09-2011 14:58:01 23.4 C 10.3 g/m*3 23.4 C 0 km/h
196 29-09-2011 15:10:02 23.7 C 10.27 g/m*3 23.7 C 0 km/h
197 29-09-2011 15:22:01 23.7 C 10.05 g/m*3 23.7 C 0 km/h
198 29-09-2011 15:34:01 23.4 C 10.3 g/m*3 23.4 C 0 km/h
199 29-09-2011 15:46:01 22.8 C 9.96 g/m*3 22.8 C 0 km/h
200 29-09-2011 15:58:01 22.6 C 10.04 g/m*3 22.6 C 0 km/h
Sensor: Nr:Datum:Temp:Abs-Feuchte:Windchill:Wind:
Aussen-T/F 201 29-09-2011 16:10:02 23.1 C 9.72 g/m*3 23.1 C 0 km/h
202 29-09-2011 16:22:01 25.3 C 10.07 g/m*3 25.3 C 0 km/h
203 29-09-2011 16:34:01 27.7 C 8.83 g/m*3 27.7 C 0 km/h
204 29-09-2011 16:46:01 27.5 C 9.79 g/m*3 27.5 C 0 km/h
205 29-09-2011 16:58:01 28.4 C 9.45 g/m*3 28.4 C 0 km/h
206 29-09-2011 17:10:01 29 C 9.77 g/m*3 29 C 0 km/h
207 29-09-2011 17:22:02 28.4 C 9.45 g/m*3 28.4 C 0 km/h
208 29-09-2011 17:34:01 28.5 C 9.78 g/m*3 28.5 C 0 km/h
209 29-09-2011 17:46:02 25.2 C 9.54 g/m*3 25.2 C 0 km/h
210 29-09-2011 17:58:02 23.8 C 10.33 g/m*3 23.8 C 0 km/h
211 29-09-2011 18:10:01 22.9 C 10.01 g/m*3 22.9 C 0 km/h
212 29-09-2011 18:22:01 21 C 8.79 g/m*3 21 C 0 km/h
213 29-09-2011 18:34:02 20.7 C 8.64 g/m*3 20.7 C 0 km/h
214 29-09-2011 18:46:01 20.6 C 8.95 g/m*3 20.6 C 0 km/h
215 29-09-2011 18:58:01 19.5 C 8.73 g/m*3 19.5 C 0 km/h
216 29-09-2011 19:10:01 18.2 C 9.01 g/m*3 18.2 C 0 km/h
217 29-09-2011 19:22:01 17.6 C 9.15 g/m*3 17.6 C 0 km/h
218 29-09-2011 19:34:02 17.1 C 9.32 g/m*3 17.1 C 0 km/h
219 29-09-2011 19:46:01 17 C 9.26 g/m*3 17 C 0 km/h
220 29-09-2011 19:58:01 17 C 9.41 g/m*3 17 C 0 km/h
221 29-09-2011 20:10:02 16.8 C 9.58 g/m*3 16.8 C 0 km/h
222 29-09-2011 20:22:01 16.2 C 9.52 g/m*3 16.2 C 0 km/h
223 29-09-2011 20:34:01 16 C 9.67 g/m*3 16 C 0 km/h
224 29-09-2011 20:46:01 15.7 C 9.9 g/m*3 15.7 C 0 km/h
225 29-09-2011 20:58:01 15 C 9.62 g/m*3 15 C 0 km/h
Sensor: Nr:Datum:Temp:Abs-Feuchte:Windchill:Wind:
Aussen-T/F 226 29-09-2011 21:10:01 14.4 C 9.39 g/m*3 14.4 C 0 km/h
227 29-09-2011 21:22:02 14.1 C 9.34 g/m*3 14.1 C 0 km/h
228 29-09-2011 21:34:01 13.8 C 9.41 g/m*3 13.8 C 0 km/h
229 29-09-2011 21:46:02 13.6 C 9.53 g/m*3 13.6 C 0 km/h
230 29-09-2011 21:58:02 13.4 C 9.42 g/m*3 13.4 C 0 km/h
231 29-09-2011 22:10:01 13.1 C 9.36 g/m*3 13.1 C 0 km/h
232 29-09-2011 22:23:02 12.8 C 9.3 g/m*3 12.8 C 0 km/h
233 29-09-2011 22:35:02 12.7 C 9.24 g/m*3 12.7 C 0 km/h
234 29-09-2011 22:47:02 12.5 C 9.13 g/m*3 12.5 C 0 km/h
235 29-09-2011 22:59:02 12.4 C 9.07 g/m*3 12.4 C 0 km/h
236 29-09-2011 23:11:02 12.4 C 9.18 g/m*3 12.4 C 0 km/h
237 29-09-2011 23:23:02 11.9 C 9 g/m*3 11.9 C 0 km/h
238 29-09-2011 23:35:02 11.9 C 9 g/m*3 11.9 C 0 km/h
239 29-09-2011 23:47:02 11.8 C 9.05 g/m*3 11.8 C 0 km/h
240 29-09-2011 23:59:02 11.5 C 8.78 g/m*3 11.5 C 0 km/h

Legende:
   Min
   Max


Maximal/Minimal-Werte vom 28.09.2011 - 29.09.2011

Sensor Min Max Avg
Temp
(Aussen-T/F)
10.9 °C
28-09-2011  06:10:03
29 °C
29-09-2011  17:10:01
16.42 °C
Abs-Feuchte
(Aussen-T/F)
8.64 g/m*3
29-09-2011  18:34:02
12.15 g/m*3
28-09-2011  12:10:02
10.28 g/m*3
Windchill
(Aussen-T/F)
10.9 C
28-09-2011  06:10:03
29 C
29-09-2011  17:10:01
16.35 C

Die Daten stammen von einer Davis Vantage Pro 2 Wetter-Station und werden unter Linux mit der Software wview2wettercgi und aufbereitet. Alle Angaben erfolgen ohne Gewähr für ihre Vollständigkeit oder Richtigkeit.
Kontakt: Rainer Krienke krienke@uni-koblenz.de . Meine Webseiten an der Uni Koblenz oder privat.
Version: $Revision: 0.78 $